Portada
METAR-TAF:

METAR-TAF

Aeropuertos :

Aeropuerto Internacional de Wellington

Wellington, Nueva Zelanda

latitud: 41-20S, longitud: 174-48E, altitud: 12 m

Observación

El informe se hizo hace 26 minutos, a las 08:00 UTC
Viento 2 kt del noreste
Temperatura 8°C
Humedad 66%
Presión 1027 hPa
Visibilidad 10 km o más

METAR: NZWN 130800Z AUTO 05002KT 9999 NCD 08/02 Q1027 NOSIG

Hora: 20:26 (08:26 UTC)

Pronóstico

El informe se hizo hace 1 hora y 28 minutos, a las 06:58 UTC
Pronóstico válido del 13 a las 06 UTC al 14 a las 06 UTC
Viento 5 kt del norte-noreste
Visibilidad 10 km o más
Escasas nubes a una altura de 5000 ft
Evolucionando progresivamente
del 14 a las 00 UTC al 14 a las 02 UTC
Viento 15 kt del norte

TAF: NZWN 130658Z 1306/1406 03005KT 9999 FEW050 BECMG 1400/1402 35015KT

Observaciones y pronósticos meteorológicos de más de 4000 aeropuertos (mensajes METAR y TAF).

Los puntos amarillos y rojos representan las estaciones disponibles.

Ponga el ratón en el punto deseado para ver el nombre de la estación.

Haga clic para ver las observaciones y los pronósticos meteorológicos.

Para cambiar el mapa : haga clic en los botones verdes con una cruz de color negro para hacer un zoom, en el botón verde con un guión para alejar o en las flechas verdes para mapas adyacentes.


METAR-TAF: